Погода Тюлькубасна 2 недели

Южно-Казахстанская область, Казахстан

24 июля-06 августа
  • 24июля
    Сегодня
    +22°
    +35°
    Ясно и безоблачно
    ВремяПогодаТемператураВлажностьДавлениеВетер, м/сВероятность осадков
    02:00Ясно и безоблачно+22°C50 %692 мм1.4 м/с2 %
    05:00Ясно и безоблачно+22°C55 %692 мм1.7 м/с2 %
    08:00Ясно и безоблачно+27°C39 %694 мм0.3 м/с2 %
    11:00Ясно и безоблачно+33°C25 %694 мм1.7 м/с2 %
    14:00Ясно и безоблачно+34°C23 %693 мм2.4 м/с2 %
    17:00Ясно и безоблачно+33°C25 %693 мм2.0 м/с2 %
    20:00Ясно и безоблачно+26°C41 %692 мм0.2 м/с2 %
    23:00Ясно и безоблачно+24°C43 %691 мм0.9 м/с2 %
  • 25июля
    Четверг
    +23°
    +36°
    Ясно и безоблачно
    ВремяПогодаТемператураВлажностьДавлениеВетер, м/сВероятность осадков
    02:00Ясно и безоблачно+23°C47 %690 мм1.5 м/с2 %
    05:00Ясно и безоблачно+22°C46 %690 мм1.7 м/с2 %
    08:00Ясно и безоблачно+28°C35 %692 мм0.0 м/с2 %
    11:00Ясно и безоблачно+34°C20 %693 мм1.4 м/с2 %
    14:00Ясно и безоблачно+36°C17 %693 мм2.6 м/с2 %
    17:00Ясно и безоблачно+34°C17 %693 мм2.2 м/с2 %
    20:00Ясно и безоблачно+28°C23 %692 мм0.2 м/с2 %
    23:00Ясно и безоблачно+25°C42 %691 мм0.9 м/с2 %
  • 26июля
    Пятница
    +21°
    +38°
    Небольшая облачность
    ВремяПогодаТемператураВлажностьДавлениеВетер, м/сВероятность осадков
    02:00Ясно и безоблачно+24°C42 %691 мм1.3 м/с2 %
    05:00Облачно с прояснениями+24°C35 %691 мм2.1 м/с2 %
    08:00Ясно и безоблачно+31°C32 %694 мм0.4 м/с2 %
    11:00Ясно и безоблачно+37°C18 %695 мм0.7 м/с2 %
    14:00Небольшая облачность+38°C15 %695 мм2.8 м/с2 %
    17:00Практически безоблачно+36°C15 %695 мм3.4 м/с2 %
    20:00Ясно и безоблачно+29°C31 %694 мм0.7 м/с2 %
    23:00Ясно и безоблачно+25°C37 %694 мм0.3 м/с2 %
  • 27июля
    Суббота
    +23°
    +37°
    Ясно и безоблачно
    ВремяПогодаТемператураВлажностьДавлениеВетер, м/сВероятность осадков
    02:00Ясно и безоблачно+24°C34 %694 мм1.6 м/с2 %
    05:00Ясно и безоблачно+22°C41 %695 мм2.2 м/с2 %
    08:00Ясно и безоблачно+27°C34 %696 мм2.0 м/с2 %
    11:00Ясно и безоблачно+34°C23 %696 мм0.9 м/с2 %
    14:00Ясно и безоблачно+37°C21 %696 мм1.3 м/с2 %
    17:00Ясно и безоблачно+35°C23 %696 мм1.1 м/с2 %
    20:00Ясно и безоблачно+29°C29 %695 мм1.0 м/с2 %
    23:00Ясно и безоблачно+26°C42 %695 мм1.0 м/с2 %
  • 28июля
    Воскресенье
    +22°
    +37°
    Ясно и безоблачно
    ВремяПогодаТемператураВлажностьДавлениеВетер, м/сВероятность осадков
    02:00Ясно и безоблачно+24°C40 %694 мм1.4 м/с2 %
    05:00Ясно и безоблачно+23°C41 %694 мм1.5 м/с2 %
    08:00Ясно и безоблачно+29°C31 %697 мм0.3 м/с2 %
    11:00Ясно и безоблачно+35°C22 %698 мм1.4 м/с2 %
    14:00Ясно и безоблачно+36°C20 %698 мм2.8 м/с2 %
    17:00Ясно и безоблачно+35°C22 %697 мм2.1 м/с2 %
    20:00Ясно и безоблачно+28°C33 %696 мм0.8 м/с2 %
    23:00Ясно и безоблачно+25°C28 %696 мм1.3 м/с2 %
Мы используем cookies
Соглашаюсь